Disney Wonder — C6QM8 — position and weather

sailwx.info

Track history (hours):
 
Tides and Currents Weather Stations Pressure Air Temp Water Temp Dewpoint Dewpoint Depression Visibility Wind Speed Wind Dir Waves Ship Positions

Disney Wonder

Last reported at 2019-Mar-21 13:00 UTC. Time now 2019-Mar-22 12:41 UTC.
Position N 28°42' W 115°54'.

Length 301 m; draft 8.2 m.

Type: Passenger vessel. MMSI: 308457000.

Wind from 350 at 19 knots

Barometer 1020.0 mb
Air temperature 16.1 ° C
Visibility: greater than 10.8 NM
Dewpoint 10.5 ° C
Water temperature 17.0 ° C

Date/timePositionNaut miles runAvg speedWind from/ knotsBaromVisibWave heightAir tempDewpointWater temp
2019-Mar-21 13:00N 28°42' W 115°54'2613.1 350 / 191020.010.8 16.110.517.0
2019-Mar-21 11:00N 29°06' W 116°06'12721.2 330 / 171018.410.8 16.012.416.0
2019-Mar-21 05:00N 31°06' W 116°54'6523.8 310 / 141020.010.8 15.410.817.0
2019-Mar-21 02:16N 32°08' W 117°16'176657.8
2019-Mar-21 02:00N 29°12' W 117°18'1823096.2 300 / 201018.010.8 15.011.717.2
2019-Mar-21 01:56N 32°14' W 117°20'819.4
2019-Mar-21 01:30N 32°22' W 117°24'815.9
2019-Mar-21 01:00N 32°29' W 117°20'1019.1
2019-Mar-21 00:30N 32°37' W 117°14'611.2
2019-Mar-21 00:00N 32°43' W 117°13'2 3.9
2019-Mar-20 23:29N 32°43' W 117°10'0 0.0
2019-Mar-20 22:59N 32°43' W 117°10'0 0.0
2019-Mar-20 22:29N 32°43' W 117°10'0 0.0
2019-Mar-20 21:47N 32°43' W 117°10'0 0.0
2019-Mar-20 21:29N 32°43' W 117°10'0 0.0
2019-Mar-20 20:59N 32°43' W 117°10'0 0.0
2019-Mar-20 20:23N 32°43' W 117°10'0 0.0
2019-Mar-20 19:53N 32°43' W 117°10'0 0.0
2019-Mar-20 19:29N 32°43' W 117°10'0 0.0
2019-Mar-20 18:53N 32°43' W 117°10'0 0.0
2019-Mar-20 18:29N 32°43' W 117°10'0 0.0
2019-Mar-20 17:59N 32°43' W 117°10'0 0.0
2019-Mar-20 17:23N 32°43' W 117°10'0 0.0
2019-Mar-20 16:59N 32°43' W 117°10'0 0.0
2019-Mar-20 16:29N 32°43' W 117°10'0 0.0
2019-Mar-20 15:59N 32°43' W 117°10'0 0.0
2019-Mar-20 15:29N 32°43' W 117°10'0 0.0
2019-Mar-20 14:56N 32°43' W 117°10'0 0.0
2019-Mar-20 14:29N 32°43' W 117°10'0 0.0
2019-Mar-20 13:59N 32°43' W 117°10'0 0.1
2019-Mar-20 13:30N 32°43' W 117°10'3 5.6
2019-Mar-20 13:00N 32°42' W 117°14'510.9
2019-Mar-20 12:31N 32°37' W 117°15'4 8.8
2019-Mar-20 12:00N 32°35' W 117°19'4 8.4
2019-Mar-20 11:30N 32°33' W 117°24'611.4
2019-Mar-20 11:00N 32°30' W 117°29'5318.9
2019-Mar-20 11:00N 32°30' W 117°24'918.5 160 / 141020.410.8 16.010.316.0
2019-Mar-20 10:31N 32°29' W 117°35'510.3
2019-Mar-20 10:00N 32°24' W 117°35'713.5
2019-Mar-20 09:30N 32°18' W 117°30'510.3
2019-Mar-20 09:00N 32°15' W 117°35'5 9.8
2019-Mar-20 08:30N 32°14' W 117°41'5 9.4
2019-Mar-20 08:01N 32°11' W 117°45'4 8.7
2019-Mar-20 07:31N 32°06' W 117°46'5 8.3
2019-Mar-20 06:52N 32°04' W 117°40'4 9.4
2019-Mar-20 06:26N 32°04' W 117°35'10 8.8
2019-Mar-20 05:15N 32°04' W 117°23'66 3.6
2019-Mar-19 11:00N 31°12' W 116°36'6517.0 160 / 11018.410.8 15.011.316.0
2019-Mar-19 07:12N 30°09' W 116°20'417.8
2019-Mar-19 07:00N 30°06' W 116°19'11917.0
2019-Mar-19 00:00N 28°12' W 115°36'3516.7 350 / 71018.010.8 16.010.318.0
2019-Mar-18 21:54N 27°42' W 115°16'916.8
2019-Mar-18 21:20N 27°34' W 115°10'8415.7
2019-Mar-18 16:00N 26°24' W 114°18'11823.5 360 / 101019.010.8 15.011.3
2019-Mar-18 11:00N 24°54' W 112°54'166 6.9 310 / 121018.410.8 17.011.519.0
2019-Mar-17 11:00N 23°00' W 110°42'42220.1 290 / 171016.4 5.4 18.014.617.0
2019-Mar-16 14:00N 28°24' W 115°42'2626.2 020 / 121018.010.8 15.711.015.8
2019-Mar-16 13:00N 28°48' W 115°54'2110.4 020 / 171018.010.8 15.711.018.6
2019-Mar-16 11:00N 29°06' W 116°06'16022.4 300 / 121018.4 5.4 15.011.316.0
2019-Mar-16 03:50N 31°38' W 117°06'721.8
2019-Mar-16 03:30N 31°45' W 117°08'1121.9
2019-Mar-16 03:00N 31°55' W 117°11'1121.7
2019-Mar-16 02:30N 32°06' W 117°15'1121.5
2019-Mar-16 02:00N 32°15' W 117°21'1020.0
2019-Mar-16 01:30N 32°25' W 117°21'918.7
2019-Mar-16 01:00N 32°34' W 117°19'815.4
2019-Mar-16 00:31N 32°41' W 117°14'3 6.0
2019-Mar-16 00:00N 32°43' W 117°12'1 1.7
2019-Mar-15 23:24N 32°43' W 117°10'0 0.0
2019-Mar-15 22:57N 32°43' W 117°10'0 0.0
2019-Mar-15 22:30N 32°43' W 117°10'0 0.0
2019-Mar-15 21:57N 32°43' W 117°10'0 0.0
2019-Mar-15 21:30N 32°43' W 117°10'0 0.0
2019-Mar-15 20:51N 32°43' W 117°10'0 0.0
2019-Mar-15 20:15N 32°43' W 117°10'0 0.0
2019-Mar-15 19:57N 32°43' W 117°10'0 0.0
2019-Mar-15 19:15N 32°43' W 117°10'0 0.0
2019-Mar-15 18:57N 32°43' W 117°10'0 0.0
2019-Mar-15 18:21N 32°43' W 117°10'0 0.0
2019-Mar-15 17:57N 32°43' W 117°10'0 0.0
2019-Mar-15 17:27N 32°43' W 117°10'0 0.0
2019-Mar-15 16:51N 32°43' W 117°10'0 0.0
2019-Mar-15 16:27N 32°43' W 117°10'0 0.0
2019-Mar-15 15:36N 32°43' W 117°10'0 0.0
2019-Mar-15 15:21N 32°43' W 117°10'0 0.0
2019-Mar-15 14:57N 32°43' W 117°10'0 0.0
2019-Mar-15 14:27N 32°43' W 117°10'0 0.0
2019-Mar-15 13:57N 32°43' W 117°10'1 2.5
2019-Mar-15 13:30N 32°43' W 117°12'4 8.6
2019-Mar-15 13:01N 32°39' W 117°14'4 7.4
2019-Mar-15 12:30N 32°36' W 117°16'4 7.6
2019-Mar-15 12:00N 32°35' W 117°21'4 7.8
2019-Mar-15 11:31N 32°33' W 117°25'611.8
2019-Mar-15 11:00N 32°29' W 117°30'7427.6
2019-Mar-15 11:00N 32°24' W 117°24'816.2 010 / 101021.410.8 16.014.316.0
2019-Mar-15 10:30N 32°24' W 117°33'611.6
2019-Mar-15 10:01N 32°18' W 117°36'4 7.7
2019-Mar-15 09:30N 32°19' W 117°32'4 8.2
2019-Mar-15 09:00N 32°19' W 117°36'4 8.0
2019-Mar-15 08:30N 32°15' W 117°38'4 7.9
2019-Mar-15 08:01N 32°12' W 117°40'4 7.4
2019-Mar-15 07:30N 32°08' W 117°41'4 7.6
2019-Mar-15 07:01N 32°05' W 117°38'4 7.4
2019-Mar-15 06:30N 32°04' W 117°34'4 7.9
2019-Mar-15 06:00N 32°04' W 117°29'6375.5
2019-Mar-15 06:00N 32°00' W 117°24'5 9.9 300 / 91023.010.8 15.7 8.920.0
2019-Mar-15 05:30N 32°05' W 117°24'714.0
2019-Mar-15 05:00N 32°00' W 117°18'7 6.5 330 / 141023.010.8 15.7 8.920.0
2019-Mar-15 03:54N 32°01' W 117°10'56 3.3
2019-Mar-14 11:00N 31°12' W 116°36'14516.1 040 / 81021.4 5.4 14.010.217.0
2019-Mar-14 02:00N 28°48' W 116°18'24820.7 230 / 111020.010.8 15.7 8.920.0
2019-Mar-13 14:00N 25°30' W 113°30'3216.2 200 / 41020.010.8 16.410.420.0
2019-Mar-13 12:00N 25°06' W 113°06'2424.3 200 / 61018.010.8 16.410.420.0
2019-Mar-13 11:00N 24°48' W 112°48'142 5.7 340 / 121020.4 5.4 17.0 9.418.0
2019-Mar-12 10:00N 23°12' W 110°54'14618.2 210 / 201012.910.8 20.018.419.0
2019-Mar-12 02:00N 24°54' W 112°48'17018.9 200 / 121015.010.8 17.516.718.0
2019-Mar-11 17:00N 27°06' W 114°48'   130 / 141011.010.8 15.0 9.6
Track history (hours):
 
Tides and Currents Weather Stations Pressure Air Temp Water Temp Dewpoint Dewpoint Depression Visibility Wind Speed Wind Dir Waves Ship Positions

Disney Wonder

Last reported at 2019-Mar-21 13:00 UTC. Time now 2019-Mar-22 12:41 UTC.
Position N 28°42' W 115°54'.

Length 301 m; draft 8.2 m.

Type: Passenger vessel. MMSI: 308457000.

Wind from 350 at 19 knots

Barometer 1020.0 mb
Air temperature 16.1 ° C
Visibility: greater than 10.8 NM
Dewpoint 10.5 ° C
Water temperature 17.0 ° C

Date/timePositionNaut miles runAvg speedWind from/ knotsBaromVisibWave heightAir tempDewpointWater temp
2019-Mar-21 13:00N 28°42' W 115°54'2613.1 350 / 191020.010.8 16.110.517.0
2019-Mar-21 11:00N 29°06' W 116°06'12721.2 330 / 171018.410.8 16.012.416.0
2019-Mar-21 05:00N 31°06' W 116°54'6523.8 310 / 141020.010.8 15.410.817.0
2019-Mar-21 02:16N 32°08' W 117°16'176657.8
2019-Mar-21 02:00N 29°12' W 117°18'1823096.2 300 / 201018.010.8 15.011.717.2
2019-Mar-21 01:56N 32°14' W 117°20'819.4
2019-Mar-21 01:30N 32°22' W 117°24'815.9
2019-Mar-21 01:00N 32°29' W 117°20'1019.1
2019-Mar-21 00:30N 32°37' W 117°14'611.2
2019-Mar-21 00:00N 32°43' W 117°13'2 3.9
2019-Mar-20 23:29N 32°43' W 117°10'0 0.0
2019-Mar-20 22:59N 32°43' W 117°10'0 0.0
2019-Mar-20 22:29N 32°43' W 117°10'0 0.0
2019-Mar-20 21:47N 32°43' W 117°10'0 0.0
2019-Mar-20 21:29N 32°43' W 117°10'0 0.0
2019-Mar-20 20:59N 32°43' W 117°10'0 0.0
2019-Mar-20 20:23N 32°43' W 117°10'0 0.0
2019-Mar-20 19:53N 32°43' W 117°10'0 0.0
2019-Mar-20 19:29N 32°43' W 117°10'0 0.0
2019-Mar-20 18:53N 32°43' W 117°10'0 0.0
2019-Mar-20 18:29N 32°43' W 117°10'0 0.0
2019-Mar-20 17:59N 32°43' W 117°10'0 0.0
2019-Mar-20 17:23N 32°43' W 117°10'0 0.0
2019-Mar-20 16:59N 32°43' W 117°10'0 0.0
2019-Mar-20 16:29N 32°43' W 117°10'0 0.0
2019-Mar-20 15:59N 32°43' W 117°10'0 0.0
2019-Mar-20 15:29N 32°43' W 117°10'0 0.0
2019-Mar-20 14:56N 32°43' W 117°10'0 0.0
2019-Mar-20 14:29N 32°43' W 117°10'0 0.0
2019-Mar-20 13:59N 32°43' W 117°10'0 0.1
2019-Mar-20 13:30N 32°43' W 117°10'3 5.6
2019-Mar-20 13:00N 32°42' W 117°14'510.9
2019-Mar-20 12:31N 32°37' W 117°15'4 8.8
2019-Mar-20 12:00N 32°35' W 117°19'4 8.4
2019-Mar-20 11:30N 32°33' W 117°24'611.4
2019-Mar-20 11:00N 32°30' W 117°29'5318.9
2019-Mar-20 11:00N 32°30' W 117°24'918.5 160 / 141020.410.8 16.010.316.0
2019-Mar-20 10:31N 32°29' W 117°35'510.3
2019-Mar-20 10:00N 32°24' W 117°35'713.5
2019-Mar-20 09:30N 32°18' W 117°30'510.3
2019-Mar-20 09:00N 32°15' W 117°35'5 9.8
2019-Mar-20 08:30N 32°14' W 117°41'5 9.4
2019-Mar-20 08:01N 32°11' W 117°45'4 8.7
2019-Mar-20 07:31N 32°06' W 117°46'5 8.3
2019-Mar-20 06:52N 32°04' W 117°40'4 9.4
2019-Mar-20 06:26N 32°04' W 117°35'10 8.8
2019-Mar-20 05:15N 32°04' W 117°23'66 3.6
2019-Mar-19 11:00N 31°12' W 116°36'6517.0 160 / 11018.410.8 15.011.316.0
2019-Mar-19 07:12N 30°09' W 116°20'417.8
2019-Mar-19 07:00N 30°06' W 116°19'11917.0
2019-Mar-19 00:00N 28°12' W 115°36'3516.7 350 / 71018.010.8 16.010.318.0
2019-Mar-18 21:54N 27°42' W 115°16'916.8
2019-Mar-18 21:20N 27°34' W 115°10'8415.7
2019-Mar-18 16:00N 26°24' W 114°18'11823.5 360 / 101019.010.8 15.011.3
2019-Mar-18 11:00N 24°54' W 112°54'166 6.9 310 / 121018.410.8 17.011.519.0
2019-Mar-17 11:00N 23°00' W 110°42'42220.1 290 / 171016.4 5.4 18.014.617.0
2019-Mar-16 14:00N 28°24' W 115°42'2626.2 020 / 121018.010.8 15.711.015.8
2019-Mar-16 13:00N 28°48' W 115°54'2110.4 020 / 171018.010.8 15.711.018.6
2019-Mar-16 11:00N 29°06' W 116°06'16022.4 300 / 121018.4 5.4 15.011.316.0
2019-Mar-16 03:50N 31°38' W 117°06'721.8
2019-Mar-16 03:30N 31°45' W 117°08'1121.9
2019-Mar-16 03:00N 31°55' W 117°11'1121.7
2019-Mar-16 02:30N 32°06' W 117°15'1121.5
2019-Mar-16 02:00N 32°15' W 117°21'1020.0
2019-Mar-16 01:30N 32°25' W 117°21'918.7
2019-Mar-16 01:00N 32°34' W 117°19'815.4
2019-Mar-16 00:31N 32°41' W 117°14'3 6.0
2019-Mar-16 00:00N 32°43' W 117°12'1 1.7
2019-Mar-15 23:24N 32°43' W 117°10'0 0.0
2019-Mar-15 22:57N 32°43' W 117°10'0 0.0
2019-Mar-15 22:30N 32°43' W 117°10'0 0.0
2019-Mar-15 21:57N 32°43' W 117°10'0 0.0
2019-Mar-15 21:30N 32°43' W 117°10'0 0.0
2019-Mar-15 20:51N 32°43' W 117°10'0 0.0
2019-Mar-15 20:15N 32°43' W 117°10'0 0.0
2019-Mar-15 19:57N 32°43' W 117°10'0 0.0
2019-Mar-15 19:15N 32°43' W 117°10'0 0.0
2019-Mar-15 18:57N 32°43' W 117°10'0 0.0
2019-Mar-15 18:21N 32°43' W 117°10'0 0.0
2019-Mar-15 17:57N 32°43' W 117°10'0 0.0
2019-Mar-15 17:27N 32°43' W 117°10'0 0.0
2019-Mar-15 16:51N 32°43' W 117°10'0 0.0
2019-Mar-15 16:27N 32°43' W 117°10'0 0.0
2019-Mar-15 15:36N 32°43' W 117°10'0 0.0
2019-Mar-15 15:21N 32°43' W 117°10'0 0.0
2019-Mar-15 14:57N 32°43' W 117°10'0 0.0
2019-Mar-15 14:27N 32°43' W 117°10'0 0.0
2019-Mar-15 13:57N 32°43' W 117°10'1 2.5
2019-Mar-15 13:30N 32°43' W 117°12'4 8.6
2019-Mar-15 13:01N 32°39' W 117°14'4 7.4
2019-Mar-15 12:30N 32°36' W 117°16'4 7.6
2019-Mar-15 12:00N 32°35' W 117°21'4 7.8
2019-Mar-15 11:31N 32°33' W 117°25'611.8
2019-Mar-15 11:00N 32°29' W 117°30'7427.6
2019-Mar-15 11:00N 32°24' W 117°24'816.2 010 / 101021.410.8 16.014.316.0
2019-Mar-15 10:30N 32°24' W 117°33'611.6
2019-Mar-15 10:01N 32°18' W 117°36'4 7.7
2019-Mar-15 09:30N 32°19' W 117°32'4 8.2
2019-Mar-15 09:00N 32°19' W 117°36'4 8.0
2019-Mar-15 08:30N 32°15' W 117°38'4 7.9
2019-Mar-15 08:01N 32°12' W 117°40'4 7.4
2019-Mar-15 07:30N 32°08' W 117°41'4 7.6
2019-Mar-15 07:01N 32°05' W 117°38'4 7.4
2019-Mar-15 06:30N 32°04' W 117°34'4 7.9
2019-Mar-15 06:00N 32°04' W 117°29'6375.5
2019-Mar-15 06:00N 32°00' W 117°24'5 9.9 300 / 91023.010.8 15.7 8.920.0
2019-Mar-15 05:30N 32°05' W 117°24'714.0
2019-Mar-15 05:00N 32°00' W 117°18'7 6.5 330 / 141023.010.8 15.7 8.920.0
2019-Mar-15 03:54N 32°01' W 117°10'56 3.3
2019-Mar-14 11:00N 31°12' W 116°36'14516.1 040 / 81021.4 5.4 14.010.217.0
2019-Mar-14 02:00N 28°48' W 116°18'24820.7 230 / 111020.010.8 15.7 8.920.0
2019-Mar-13 14:00N 25°30' W 113°30'3216.2 200 / 41020.010.8 16.410.420.0
2019-Mar-13 12:00N 25°06' W 113°06'2424.3 200 / 61018.010.8 16.410.420.0
2019-Mar-13 11:00N 24°48' W 112°48'142 5.7 340 / 121020.4 5.4 17.0 9.418.0
2019-Mar-12 10:00N 23°12' W 110°54'14618.2 210 / 201012.910.8 20.018.419.0
2019-Mar-12 02:00N 24°54' W 112°48'17018.9 200 / 121015.010.8 17.516.718.0
2019-Mar-11 17:00N 27°06' W 114°48'   130 / 141011.010.8 15.0 9.6

Dump ship's entire track history